sensor_id;sensor_type;location;lat;lon;timestamp;pressure;altitude;pressure_sealevel;temperature;humidity
59272;BME280;45043;51.068;7.026;2023-04-26T00:01:54;100684.56;;;2.34;50.84
59272;BME280;45043;51.068;7.026;2023-04-26T00:04:57;100690.06;;;2.31;50.81
59272;BME280;45043;51.068;7.026;2023-04-26T00:08:03;100692.41;;;2.34;50.83
59272;BME280;45043;51.068;7.026;2023-04-26T00:11:04;100689.50;;;2.37;50.77
59272;BME280;45043;51.068;7.026;2023-04-26T00:14:04;100685.94;;;2.38;51.06
59272;BME280;45043;51.068;7.026;2023-04-26T00:17:04;100684.56;;;2.34;50.71
59272;BME280;45043;51.068;7.026;2023-04-26T00:20:06;100686.63;;;2.31;50.79
59272;BME280;45043;51.068;7.026;2023-04-26T00:23:08;100684.38;;;2.26;51.18
59272;BME280;45043;51.068;7.026;2023-04-26T00:26:09;100683.00;;;2.22;51.20
59272;BME280;45043;51.068;7.026;2023-04-26T00:29:10;100686.88;;;2.18;50.99
59272;BME280;45043;51.068;7.026;2023-04-26T00:32:10;100687.84;;;2.17;51.40
59272;BME280;45043;51.068;7.026;2023-04-26T00:35:11;100676.66;;;2.15;50.92
59272;BME280;45043;51.068;7.026;2023-04-26T00:38:12;100682.59;;;2.17;50.84
59272;BME280;45043;51.068;7.026;2023-04-26T00:41:12;100677.63;;;2.14;51.02
59272;BME280;45043;51.068;7.026;2023-04-26T00:44:13;100678.88;;;2.10;51.31
59272;BME280;45043;51.068;7.026;2023-04-26T00:47:14;100667.69;;;2.08;51.04
59272;BME280;45043;51.068;7.026;2023-04-26T00:50:15;100670.44;;;2.06;50.92
59272;BME280;45043;51.068;7.026;2023-04-26T00:53:16;100673.88;;;2.07;51.04
59272;BME280;45043;51.068;7.026;2023-04-26T00:56:21;100669.88;;;2.02;50.94
59272;BME280;45043;51.068;7.026;2023-04-26T00:59:25;100667.41;;;2.01;50.89
59272;BME280;45043;51.068;7.026;2023-04-26T01:02:26;100670.31;;;1.98;50.97
59272;BME280;45043;51.068;7.026;2023-04-26T01:05:26;100673.19;;;1.95;50.88
59272;BME280;45043;51.068;7.026;2023-04-26T01:08:27;100673.31;;;1.93;51.16
59272;BME280;45043;51.068;7.026;2023-04-26T01:11:27;100676.06;;;1.92;50.93
59272;BME280;45043;51.068;7.026;2023-04-26T01:14:29;100675.91;;;1.93;50.79
59272;BME280;45043;51.068;7.026;2023-04-26T01:17:31;100677.59;;;1.94;51.23
59272;BME280;45043;51.068;7.026;2023-04-26T01:20:31;100683.41;;;1.98;51.18
59272;BME280;45043;51.068;7.026;2023-04-26T01:23:32;100683.25;;;1.99;50.67
59272;BME280;45043;51.068;7.026;2023-04-26T01:26:33;100675.41;;;1.99;50.80
59272;BME280;45043;51.068;7.026;2023-04-26T01:29:33;100679.50;;;1.92;51.05
59272;BME280;45043;51.068;7.026;2023-04-26T01:32:34;100679.78;;;1.89;51.18
59272;BME280;45043;51.068;7.026;2023-04-26T01:35:35;100683.63;;;1.85;51.43
59272;BME280;45043;51.068;7.026;2023-04-26T01:38:36;100682.25;;;1.81;51.29
59272;BME280;45043;51.068;7.026;2023-04-26T01:41:37;100686.09;;;1.77;51.34
59272;BME280;45043;51.068;7.026;2023-04-26T01:44:37;100679.22;;;1.76;51.17
59272;BME280;45043;51.068;7.026;2023-04-26T01:47:38;100683.63;;;1.75;51.80
59272;BME280;45043;51.068;7.026;2023-04-26T01:50:39;100686.38;;;1.74;51.58
59272;BME280;45043;51.068;7.026;2023-04-26T01:53:39;100677.69;;;1.73;51.73
59272;BME280;45043;51.068;7.026;2023-04-26T01:56:39;100679.47;;;1.73;51.91
59272;BME280;45043;51.068;7.026;2023-04-26T01:59:40;100673.41;;;1.72;51.89
59272;BME280;45043;51.068;7.026;2023-04-26T02:02:41;100679.47;;;1.73;51.67
59272;BME280;45043;51.068;7.026;2023-04-26T02:05:41;100681.38;;;1.71;51.62
59272;BME280;45043;51.068;7.026;2023-04-26T02:08:41;100679.75;;;1.70;52.03
59272;BME280;45043;51.068;7.026;2023-04-26T02:11:42;100678.09;;;1.69;52.04
59272;BME280;45043;51.068;7.026;2023-04-26T02:14:43;100678.34;;;1.66;52.19
59272;BME280;45043;51.068;7.026;2023-04-26T02:17:43;100686.22;;;1.66;52.32
59272;BME280;45043;51.068;7.026;2023-04-26T02:20:44;100677.66;;;1.64;51.84
59272;BME280;45043;51.068;7.026;2023-04-26T02:23:45;100682.19;;;1.62;51.96
59272;BME280;45043;51.068;7.026;2023-04-26T02:26:45;100685.22;;;1.57;52.01
59272;BME280;45043;51.068;7.026;2023-04-26T02:29:46;100683.28;;;1.49;52.04
59272;BME280;45043;51.068;7.026;2023-04-26T02:32:46;100684.75;;;1.42;52.20
59272;BME280;45043;51.068;7.026;2023-04-26T02:35:47;100682.97;;;1.43;52.26
59272;BME280;45043;51.068;7.026;2023-04-26T02:38:47;100680.47;;;1.41;52.19
59272;BME280;45043;51.068;7.026;2023-04-26T02:41:48;100671.94;;;1.39;52.06
59272;BME280;45043;51.068;7.026;2023-04-26T02:44:48;100675.63;;;1.37;52.32
59272;BME280;45043;51.068;7.026;2023-04-26T02:47:49;100668.03;;;1.34;52.37
59272;BME280;45043;51.068;7.026;2023-04-26T02:50:50;100669.16;;;1.31;52.60
59272;BME280;45043;51.068;7.026;2023-04-26T02:53:50;100669.81;;;1.33;52.30
59272;BME280;45043;51.068;7.026;2023-04-26T02:56:52;100673.94;;;1.26;52.60
59272;BME280;45043;51.068;7.026;2023-04-26T02:59:52;100666.72;;;1.18;52.40
59272;BME280;45043;51.068;7.026;2023-04-26T03:02:52;100654.19;;;1.12;52.73
59272;BME280;45043;51.068;7.026;2023-04-26T03:05:53;100661.47;;;1.09;52.46
59272;BME280;45043;51.068;7.026;2023-04-26T03:08:53;100669.31;;;1.09;52.78
59272;BME280;45043;51.068;7.026;2023-04-26T03:11:54;100665.16;;;1.06;52.73
59272;BME280;45043;51.068;7.026;2023-04-26T03:14:55;100669.00;;;1.02;53.24
59272;BME280;45043;51.068;7.026;2023-04-26T03:17:58;100671.88;;;0.99;52.81
59272;BME280;45043;51.068;7.026;2023-04-26T03:21:00;100669.50;;;0.96;53.08
59272;BME280;45043;51.068;7.026;2023-04-26T03:24:01;100663.59;;;0.94;53.23
59272;BME280;45043;51.068;7.026;2023-04-26T03:27:02;100666.31;;;0.92;53.40
59272;BME280;45043;51.068;7.026;2023-04-26T03:30:02;100662.16;;;0.90;53.18
59272;BME280;45043;51.068;7.026;2023-04-26T03:33:05;100662.16;;;0.90;53.18
59272;BME280;45043;51.068;7.026;2023-04-26T03:36:05;100656.69;;;0.93;53.32
59272;BME280;45043;51.068;7.026;2023-04-26T03:39:06;100651.34;;;0.94;53.49
59272;BME280;45043;51.068;7.026;2023-04-26T03:42:07;100652.97;;;0.95;53.65
59272;BME280;45043;51.068;7.026;2023-04-26T03:45:09;100656.56;;;0.94;53.79
59272;BME280;45043;51.068;7.026;2023-04-26T03:48:09;100662.03;;;0.91;53.66
59272;BME280;45043;51.068;7.026;2023-04-26T03:51:10;100659.41;;;0.91;53.33
59272;BME280;45043;51.068;7.026;2023-04-26T03:54:11;100658.69;;;0.89;53.35
59272;BME280;45043;51.068;7.026;2023-04-26T03:57:13;100660.03;;;0.83;53.67
59272;BME280;45043;51.068;7.026;2023-04-26T04:00:14;100659.72;;;0.77;53.53
59272;BME280;45043;51.068;7.026;2023-04-26T04:03:18;100668.06;;;0.71;53.32
59272;BME280;45043;51.068;7.026;2023-04-26T04:06:20;100653.88;;;0.64;53.44
59272;BME280;45043;51.068;7.026;2023-04-26T04:09:21;100655.59;;;0.53;53.60
59272;BME280;45043;51.068;7.026;2023-04-26T04:12:21;100662.03;;;0.49;53.83
59272;BME280;45043;51.068;7.026;2023-04-26T04:15:22;100663.25;;;0.45;54.16
59272;BME280;45043;51.068;7.026;2023-04-26T04:18:23;100659.41;;;0.49;54.06
59272;BME280;45043;51.068;7.026;2023-04-26T04:21:23;100664.63;;;0.49;54.41
59272;BME280;45043;51.068;7.026;2023-04-26T04:24:24;100666.53;;;0.47;54.53
59272;BME280;45043;51.068;7.026;2023-04-26T04:27:26;100665.28;;;0.42;54.68
59272;BME280;45043;51.068;7.026;2023-04-26T04:30:27;100671.56;;;0.39;54.56
59272;BME280;45043;51.068;7.026;2023-04-26T04:33:28;100669.91;;;0.38;54.56
59272;BME280;45043;51.068;7.026;2023-04-26T04:36:30;100679.41;;;0.39;54.76
59272;BME280;45043;51.068;7.026;2023-04-26T04:39:31;100677.63;;;0.40;55.13
59272;BME280;45043;51.068;7.026;2023-04-26T04:42:32;100683.19;;;0.46;55.03
59272;BME280;45043;51.068;7.026;2023-04-26T04:45:36;100679.81;;;0.55;55.01
59272;BME280;45043;51.068;7.026;2023-04-26T04:48:40;100682.63;;;0.64;55.31
59272;BME280;45043;51.068;7.026;2023-04-26T04:51:41;100680.06;;;0.73;55.11
59272;BME280;45043;51.068;7.026;2023-04-26T04:54:41;100683.44;;;0.85;55.42
59272;BME280;45043;51.068;7.026;2023-04-26T04:57:42;100688.63;;;0.96;54.54
59272;BME280;45043;51.068;7.026;2023-04-26T05:00:43;100685.25;;;1.05;54.33
59272;BME280;45043;51.068;7.026;2023-04-26T05:03:57;100692.22;;;1.16;53.92
59272;BME280;45043;51.068;7.026;2023-04-26T05:06:58;100692.81;;;1.29;53.57
59272;BME280;45043;51.068;7.026;2023-04-26T05:09:59;100702.19;;;1.32;53.68
59272;BME280;45043;51.068;7.026;2023-04-26T05:13:01;100702.63;;;1.37;53.75
59272;BME280;45043;51.068;7.026;2023-04-26T05:16:02;100709.81;;;1.45;53.68
59272;BME280;45043;51.068;7.026;2023-04-26T05:19:03;100712.50;;;1.54;53.57
59272;BME280;45043;51.068;7.026;2023-04-26T05:22:04;100713.09;;;1.68;53.09
59272;BME280;45043;51.068;7.026;2023-04-26T05:25:06;100719.22;;;1.88;52.79
59272;BME280;45043;51.068;7.026;2023-04-26T05:28:07;100714.28;;;2.04;52.95
59272;BME280;45043;51.068;7.026;2023-04-26T05:31:31;100725.09;;;2.20;52.47
59272;BME280;45043;51.068;7.026;2023-04-26T05:34:40;100714.34;;;2.33;52.00
59272;BME280;45043;51.068;7.026;2023-04-26T05:37:44;100716.41;;;2.39;52.21
59272;BME280;45043;51.068;7.026;2023-04-26T05:40:47;100726.63;;;2.52;52.06
59272;BME280;45043;51.068;7.026;2023-04-26T05:43:47;100722.63;;;2.67;51.52
59272;BME280;45043;51.068;7.026;2023-04-26T05:46:48;100730.88;;;2.82;51.21
59272;BME280;45043;51.068;7.026;2023-04-26T05:49:48;100728.41;;;2.90;51.09
59272;BME280;45043;51.068;7.026;2023-04-26T05:52:50;100723.69;;;3.04;51.36
59272;BME280;45043;51.068;7.026;2023-04-26T05:55:50;100730.03;;;3.11;50.75
59272;BME280;45043;51.068;7.026;2023-04-26T05:58:51;100727.81;;;3.16;51.59
59272;BME280;45043;51.068;7.026;2023-04-26T06:01:52;100737.53;;;3.53;51.10
59272;BME280;45043;51.068;7.026;2023-04-26T06:04:53;100745.16;;;3.83;50.46
59272;BME280;45043;51.068;7.026;2023-04-26T06:07:53;100742.44;;;4.03;50.47
59272;BME280;45043;51.068;7.026;2023-04-26T06:10:54;100739.84;;;4.20;49.80
59272;BME280;45043;51.068;7.026;2023-04-26T06:13:55;100741.81;;;4.36;49.72
59272;BME280;45043;51.068;7.026;2023-04-26T06:16:56;100744.91;;;4.50;49.23
59272;BME280;45043;51.068;7.026;2023-04-26T06:19:57;100748.59;;;4.57;49.13
59272;BME280;45043;51.068;7.026;2023-04-26T06:22:58;100748.03;;;4.71;48.84
59272;BME280;45043;51.068;7.026;2023-04-26T06:25:58;100746.38;;;4.88;48.44
59272;BME280;45043;51.068;7.026;2023-04-26T06:28:59;100760.59;;;4.95;48.78
59272;BME280;45043;51.068;7.026;2023-04-26T06:32:00;100761.00;;;5.08;48.01
59272;BME280;45043;51.068;7.026;2023-04-26T06:35:02;100764.91;;;5.22;48.00
59272;BME280;45043;51.068;7.026;2023-04-26T06:38:03;100756.19;;;5.48;47.63
59272;BME280;45043;51.068;7.026;2023-04-26T06:41:03;100769.63;;;5.62;47.26
59272;BME280;45043;51.068;7.026;2023-04-26T06:44:05;100764.66;;;5.59;47.44
59272;BME280;45043;51.068;7.026;2023-04-26T06:47:05;100758.19;;;5.46;47.36
59272;BME280;45043;51.068;7.026;2023-04-26T06:50:09;100762.75;;;5.44;47.08
59272;BME280;45043;51.068;7.026;2023-04-26T06:53:10;100762.03;;;5.33;47.02
59272;BME280;45043;51.068;7.026;2023-04-26T06:56:11;100758.88;;;5.30;47.09
59272;BME280;45043;51.068;7.026;2023-04-26T06:59:11;100749.16;;;5.30;47.06
59272;BME280;45043;51.068;7.026;2023-04-26T07:02:11;100754.03;;;5.43;47.00
59272;BME280;45043;51.068;7.026;2023-04-26T07:05:12;100749.72;;;5.68;46.75
59272;BME280;45043;51.068;7.026;2023-04-26T07:08:14;100751.16;;;5.97;46.48
59272;BME280;45043;51.068;7.026;2023-04-26T07:11:15;100759.81;;;6.23;46.02
59272;BME280;45043;51.068;7.026;2023-04-26T07:14:15;100756.69;;;6.28;45.50
59272;BME280;45043;51.068;7.026;2023-04-26T07:17:17;100759.97;;;6.22;45.43
59272;BME280;45043;51.068;7.026;2023-04-26T07:20:18;100754.53;;;6.23;45.89
59272;BME280;45043;51.068;7.026;2023-04-26T07:23:23;100752.63;;;6.50;46.13
59272;BME280;45043;51.068;7.026;2023-04-26T07:26:25;100760.06;;;6.71;45.81
59272;BME280;45043;51.068;7.026;2023-04-26T07:29:26;100755.25;;;6.82;45.57
59272;BME280;45043;51.068;7.026;2023-04-26T07:32:27;100751.66;;;7.16;45.00
59272;BME280;45043;51.068;7.026;2023-04-26T07:35:27;100757.88;;;7.48;44.13
59272;BME280;45043;51.068;7.026;2023-04-26T07:38:28;100748.28;;;7.55;43.82
59272;BME280;45043;51.068;7.026;2023-04-26T07:41:28;100743.28;;;7.60;43.44
59272;BME280;45043;51.068;7.026;2023-04-26T07:44:28;100744.63;;;7.56;42.92
59272;BME280;45043;51.068;7.026;2023-04-26T07:47:29;100750.94;;;7.47;42.80
59272;BME280;45043;51.068;7.026;2023-04-26T07:50:29;100741.22;;;7.31;42.81
59272;BME280;45043;51.068;7.026;2023-04-26T07:53:30;100754.94;;;7.26;42.76
59272;BME280;45043;51.068;7.026;2023-04-26T07:56:30;100756.94;;;7.24;42.83
59272;BME280;45043;51.068;7.026;2023-04-26T07:59:30;100755.28;;;7.23;42.49
59272;BME280;45043;51.068;7.026;2023-04-26T08:02:31;100755.47;;;7.14;42.14
59272;BME280;45043;51.068;7.026;2023-04-26T08:05:31;100748.53;;;7.13;42.02
59272;BME280;45043;51.068;7.026;2023-04-26T08:08:32;100752.00;;;7.05;41.42
59272;BME280;45043;51.068;7.026;2023-04-26T08:11:32;100750.97;;;6.81;41.53
59272;BME280;45043;51.068;7.026;2023-04-26T08:14:37;100748.34;;;6.81;41.62
59272;BME280;45043;51.068;7.026;2023-04-26T08:17:38;100739.28;;;6.92;41.53
59272;BME280;45043;51.068;7.026;2023-04-26T08:20:38;100738.97;;;7.03;41.32
59272;BME280;45043;51.068;7.026;2023-04-26T08:23:39;100740.59;;;7.04;41.75
59272;BME280;45043;51.068;7.026;2023-04-26T08:26:39;100743.75;;;7.00;41.43
59272;BME280;45043;51.068;7.026;2023-04-26T08:29:40;100749.16;;;6.82;41.19
59272;BME280;45043;51.068;7.026;2023-04-26T08:32:40;100748.03;;;6.76;41.27
59272;BME280;45043;51.068;7.026;2023-04-26T08:35:41;100751.50;;;6.93;40.82
59272;BME280;45043;51.068;7.026;2023-04-26T08:38:41;100743.09;;;7.06;40.06
59272;BME280;45043;51.068;7.026;2023-04-26T08:41:48;100745.72;;;7.14;40.74
59272;BME280;45043;51.068;7.026;2023-04-26T08:44:52;100751.31;;;7.27;40.44
59272;BME280;45043;51.068;7.026;2023-04-26T08:48:02;100751.78;;;7.39;40.39
59272;BME280;45043;51.068;7.026;2023-04-26T08:51:06;100739.56;;;7.46;39.86
59272;BME280;45043;51.068;7.026;2023-04-26T08:54:09;100751.25;;;7.52;40.42
59272;BME280;45043;51.068;7.026;2023-04-26T08:57:11;100748.94;;;7.49;40.87
59272;BME280;45043;51.068;7.026;2023-04-26T09:00:13;100737.94;;;7.29;40.34
59272;BME280;45043;51.068;7.026;2023-04-26T09:03:15;100754.63;;;7.05;40.38
59272;BME280;45043;51.068;7.026;2023-04-26T09:06:16;100755.94;;;7.01;40.09
59272;BME280;45043;51.068;7.026;2023-04-26T09:09:18;100758.28;;;6.96;39.00
59272;BME280;45043;51.068;7.026;2023-04-26T09:12:21;100751.00;;;6.90;38.56
59272;BME280;45043;51.068;7.026;2023-04-26T09:15:22;100752.47;;;6.76;39.23
59272;BME280;45043;51.068;7.026;2023-04-26T09:18:23;100750.31;;;6.71;39.33
59272;BME280;45043;51.068;7.026;2023-04-26T09:21:26;100759.59;;;6.83;39.88
59272;BME280;45043;51.068;7.026;2023-04-26T09:24:46;100746.38;;;7.00;40.01
59272;BME280;45043;51.068;7.026;2023-04-26T09:27:47;100751.66;;;7.16;39.64
59272;BME280;45043;51.068;7.026;2023-04-26T09:30:48;100747.50;;;7.30;39.10
59272;BME280;45043;51.068;7.026;2023-04-26T09:33:58;100742.34;;;7.45;38.43
59272;BME280;45043;51.068;7.026;2023-04-26T09:36:59;100743.69;;;7.41;38.50
59272;BME280;45043;51.068;7.026;2023-04-26T09:39:59;100744.06;;;7.13;38.83
59272;BME280;45043;51.068;7.026;2023-04-26T09:43:10;100740.41;;;7.22;39.24
59272;BME280;45043;51.068;7.026;2023-04-26T09:46:21;100740.75;;;7.27;38.72
59272;BME280;45043;51.068;7.026;2023-04-26T09:49:31;100742.88;;;7.32;38.09
59272;BME280;45043;51.068;7.026;2023-04-26T09:52:41;100730.94;;;7.44;37.41
59272;BME280;45043;51.068;7.026;2023-04-26T09:55:43;100723.81;;;7.61;37.96
59272;BME280;45043;51.068;7.026;2023-04-26T10:01:51;100725.28;;;8.03;37.43
59272;BME280;45043;51.068;7.026;2023-04-26T10:04:53;100731.59;;;7.94;37.08
59272;BME280;45043;51.068;7.026;2023-04-26T10:07:54;100728.13;;;7.46;37.19
59272;BME280;45043;51.068;7.026;2023-04-26T10:10:56;100725.72;;;7.28;37.76
59272;BME280;45043;51.068;7.026;2023-04-26T10:13:57;100718.88;;;7.50;37.38
59272;BME280;45043;51.068;7.026;2023-04-26T10:16:58;100714.03;;;7.70;36.91
59272;BME280;45043;51.068;7.026;2023-04-26T10:20:00;100715.13;;;7.83;37.28
59272;BME280;45043;51.068;7.026;2023-04-26T10:23:08;100712.66;;;8.13;35.66
59272;BME280;45043;51.068;7.026;2023-04-26T10:26:47;100713.75;;;8.19;35.83
59272;BME280;45043;51.068;7.026;2023-04-26T10:36:10;100703.94;;;8.36;34.77
59272;BME280;45043;51.068;7.026;2023-04-26T10:39:19;100702.50;;;8.48;34.66
59272;BME280;45043;51.068;7.026;2023-04-26T10:42:25;100706.38;;;8.60;33.60
59272;BME280;45043;51.068;7.026;2023-04-26T10:45:28;100702.75;;;8.61;32.72
59272;BME280;45043;51.068;7.026;2023-04-26T10:48:32;100694.97;;;8.60;32.28
59272;BME280;45043;51.068;7.026;2023-04-26T10:51:32;100703.69;;;8.68;31.99
59272;BME280;45043;51.068;7.026;2023-04-26T10:54:50;100708.41;;;8.58;32.15
59272;BME280;45043;51.068;7.026;2023-04-26T10:57:52;100696.13;;;8.42;32.35
59272;BME280;45043;51.068;7.026;2023-04-26T11:01:09;100693.47;;;8.42;32.28
59272;BME280;45043;51.068;7.026;2023-04-26T11:04:17;100703.00;;;8.28;32.07
59272;BME280;45043;51.068;7.026;2023-04-26T11:07:36;100692.25;;;8.22;32.12
59272;BME280;45043;51.068;7.026;2023-04-26T11:10:37;100701.25;;;8.13;32.03
59272;BME280;45043;51.068;7.026;2023-04-26T11:13:40;100695.09;;;8.12;31.82
59272;BME280;45043;51.068;7.026;2023-04-26T11:16:41;100685.00;;;8.16;31.49
59272;BME280;45043;51.068;7.026;2023-04-26T11:19:41;100686.81;;;8.15;31.10
59272;BME280;45043;51.068;7.026;2023-04-26T11:22:42;100686.81;;;8.15;31.18
59272;BME280;45043;51.068;7.026;2023-04-26T11:25:42;100677.94;;;8.39;30.96
59272;BME280;45043;51.068;7.026;2023-04-26T11:28:43;100676.56;;;8.66;30.56
59272;BME280;45043;51.068;7.026;2023-04-26T11:31:56;100670.09;;;8.69;30.32
59272;BME280;45043;51.068;7.026;2023-04-26T11:34:59;100673.66;;;8.53;30.47
59272;BME280;45043;51.068;7.026;2023-04-26T11:38:03;100669.97;;;8.62;30.81
59272;BME280;45043;51.068;7.026;2023-04-26T11:41:07;100678.97;;;8.53;31.09
59272;BME280;45043;51.068;7.026;2023-04-26T11:44:10;100675.38;;;8.46;30.58
59272;BME280;45043;51.068;7.026;2023-04-26T11:47:11;100672.22;;;8.50;30.23
59272;BME280;45043;51.068;7.026;2023-04-26T11:50:12;100662.44;;;8.51;29.96
59272;BME280;45043;51.068;7.026;2023-04-26T11:53:14;100666.66;;;8.60;29.65
59272;BME280;45043;51.068;7.026;2023-04-26T11:56:18;100666.34;;;8.78;29.64
59272;BME280;45043;51.068;7.026;2023-04-26T11:59:23;100668.75;;;8.88;29.20
59272;BME280;45043;51.068;7.026;2023-04-26T12:02:24;100660.13;;;8.71;29.58
59272;BME280;45043;51.068;7.026;2023-04-26T12:05:32;100662.97;;;8.69;29.53
59272;BME280;45043;51.068;7.026;2023-04-26T12:08:33;100662.69;;;8.79;29.77
59272;BME280;45043;51.068;7.026;2023-04-26T12:11:34;100671.28;;;8.81;30.43
59272;BME280;45043;51.068;7.026;2023-04-26T12:14:36;100671.19;;;8.74;30.37
59272;BME280;45043;51.068;7.026;2023-04-26T12:17:49;100668.97;;;8.63;30.29
59272;BME280;45043;51.068;7.026;2023-04-26T12:20:57;100673.75;;;8.97;29.60
59272;BME280;45043;51.068;7.026;2023-04-26T12:23:58;100668.00;;;8.94;29.39
59272;BME280;45043;51.068;7.026;2023-04-26T12:27:02;100672.69;;;9.07;29.75
59272;BME280;45043;51.068;7.026;2023-04-26T12:30:12;100670.06;;;9.21;29.71
59272;BME280;45043;51.068;7.026;2023-04-26T12:33:12;100673.06;;;9.18;29.76
59272;BME280;45043;51.068;7.026;2023-04-26T12:36:13;100655.31;;;9.19;29.62
59272;BME280;45043;51.068;7.026;2023-04-26T12:39:13;100665.84;;;9.27;29.54
59272;BME280;45043;51.068;7.026;2023-04-26T12:42:15;100660.63;;;9.34;29.17
59272;BME280;45043;51.068;7.026;2023-04-26T12:45:16;100666.84;;;9.41;29.06
59272;BME280;45043;51.068;7.026;2023-04-26T12:48:18;100667.56;;;9.35;28.53
59272;BME280;45043;51.068;7.026;2023-04-26T12:51:18;100661.63;;;9.33;28.88
59272;BME280;45043;51.068;7.026;2023-04-26T12:54:19;100655.88;;;9.44;29.07
59272;BME280;45043;51.068;7.026;2023-04-26T12:57:19;100655.22;;;9.42;28.96
59272;BME280;45043;51.068;7.026;2023-04-26T13:00:21;100651.19;;;9.46;29.28
59272;BME280;45043;51.068;7.026;2023-04-26T13:03:22;100660.25;;;9.66;29.09
59272;BME280;45043;51.068;7.026;2023-04-26T13:06:22;100662.44;;;9.77;28.27
59272;BME280;45043;51.068;7.026;2023-04-26T13:09:23;100653.34;;;9.87;27.90
59272;BME280;45043;51.068;7.026;2023-04-26T13:12:24;100652.13;;;10.25;27.86
59272;BME280;45043;51.068;7.026;2023-04-26T13:15:24;100648.94;;;10.80;27.64
59272;BME280;45043;51.068;7.026;2023-04-26T13:18:26;100642.91;;;10.99;26.91
59272;BME280;45043;51.068;7.026;2023-04-26T13:21:27;100641.56;;;11.16;26.76
59272;BME280;45043;51.068;7.026;2023-04-26T13:24:28;100650.56;;;11.15;26.67
59272;BME280;45043;51.068;7.026;2023-04-26T13:27:28;100652.63;;;11.20;25.96
59272;BME280;45043;51.068;7.026;2023-04-26T13:30:29;100652.63;;;11.55;25.79
59272;BME280;45043;51.068;7.026;2023-04-26T13:33:30;100654.97;;;11.78;26.24
59272;BME280;45043;51.068;7.026;2023-04-26T13:36:31;100659.44;;;11.70;25.88
59272;BME280;45043;51.068;7.026;2023-04-26T13:39:32;100662.47;;;11.67;26.01
59272;BME280;45043;51.068;7.026;2023-04-26T13:42:36;100653.66;;;11.60;26.25
59272;BME280;45043;51.068;7.026;2023-04-26T13:45:37;100661.34;;;11.35;26.57
59272;BME280;45043;51.068;7.026;2023-04-26T13:48:37;100655.72;;;11.58;26.55
59272;BME280;45043;51.068;7.026;2023-04-26T13:51:38;100645.19;;;11.91;25.98
59272;BME280;45043;51.068;7.026;2023-04-26T13:54:38;100634.97;;;12.08;25.78
59272;BME280;45043;51.068;7.026;2023-04-26T13:57:40;100630.50;;;12.29;25.60
59272;BME280;45043;51.068;7.026;2023-04-26T14:00:41;100647.31;;;12.36;25.03
59272;BME280;45043;51.068;7.026;2023-04-26T14:03:42;100649.78;;;12.37;24.86
59272;BME280;45043;51.068;7.026;2023-04-26T14:06:42;100630.31;;;12.37;24.85
59272;BME280;45043;51.068;7.026;2023-04-26T14:09:43;100626.72;;;13.23;22.52
59272;BME280;45043;51.068;7.026;2023-04-26T14:12:43;100634.59;;;13.62;22.32
59272;BME280;45043;51.068;7.026;2023-04-26T14:15:44;100631.47;;;13.21;23.51
59272;BME280;45043;51.068;7.026;2023-04-26T14:18:44;100631.81;;;13.31;24.21
59272;BME280;45043;51.068;7.026;2023-04-26T14:21:45;100622.84;;;13.19;23.60
59272;BME280;45043;51.068;7.026;2023-04-26T14:24:45;100627.91;;;13.40;23.42
59272;BME280;45043;51.068;7.026;2023-04-26T14:27:46;100633.78;;;14.00;22.88
59272;BME280;45043;51.068;7.026;2023-04-26T14:30:47;100619.38;;;14.58;22.46
59272;BME280;45043;51.068;7.026;2023-04-26T14:33:48;100618.56;;;15.01;22.35
59272;BME280;45043;51.068;7.026;2023-04-26T14:36:48;100623.63;;;15.27;21.89
59272;BME280;45043;51.068;7.026;2023-04-26T14:39:49;100619.53;;;14.88;22.23
59272;BME280;45043;51.068;7.026;2023-04-26T14:42:49;100625.50;;;14.08;22.68
59272;BME280;45043;51.068;7.026;2023-04-26T14:45:50;100617.09;;;14.05;23.22
59272;BME280;45043;51.068;7.026;2023-04-26T14:48:51;100627.00;;;14.29;22.60
59272;BME280;45043;51.068;7.026;2023-04-26T14:51:51;100625.06;;;14.68;22.16
59272;BME280;45043;51.068;7.026;2023-04-26T14:54:52;100614.19;;;15.06;21.75
59272;BME280;45043;51.068;7.026;2023-04-26T14:57:52;100604.16;;;15.69;21.62
59272;BME280;45043;51.068;7.026;2023-04-26T15:00:53;100607.28;;;16.61;20.89
59272;BME280;45043;51.068;7.026;2023-04-26T15:03:55;100605.25;;;17.27;20.42
59272;BME280;45043;51.068;7.026;2023-04-26T15:06:55;100596.53;;;17.20;20.34
59272;BME280;45043;51.068;7.026;2023-04-26T15:09:56;100608.31;;;17.07;20.14
59272;BME280;45043;51.068;7.026;2023-04-26T15:12:56;100591.31;;;16.90;20.20
59272;BME280;45043;51.068;7.026;2023-04-26T15:16:01;100600.53;;;16.82;20.26
59272;BME280;45043;51.068;7.026;2023-04-26T15:19:04;100598.03;;;16.22;20.24
59272;BME280;45043;51.068;7.026;2023-04-26T15:22:04;100589.06;;;15.74;20.87
59272;BME280;45043;51.068;7.026;2023-04-26T15:25:05;100586.19;;;15.58;21.49
59272;BME280;45043;51.068;7.026;2023-04-26T15:28:06;100591.50;;;15.76;21.27
59272;BME280;45043;51.068;7.026;2023-04-26T15:31:08;100586.41;;;15.86;20.74
59272;BME280;45043;51.068;7.026;2023-04-26T15:34:10;100599.84;;;15.98;20.46
59272;BME280;45043;51.068;7.026;2023-04-26T15:37:11;100591.25;;;16.08;20.09
59272;BME280;45043;51.068;7.026;2023-04-26T15:40:11;100582.91;;;16.39;19.91
59272;BME280;45043;51.068;7.026;2023-04-26T15:43:12;100592.03;;;16.62;19.49
59272;BME280;45043;51.068;7.026;2023-04-26T15:46:13;100577.56;;;16.63;19.54
59272;BME280;45043;51.068;7.026;2023-04-26T15:49:14;100575.63;;;16.98;19.13
59272;BME280;45043;51.068;7.026;2023-04-26T15:52:15;100583.44;;;17.12;18.39
59272;BME280;45043;51.068;7.026;2023-04-26T15:55:17;100571.44;;;17.14;19.01
59272;BME280;45043;51.068;7.026;2023-04-26T15:58:17;100579.06;;;17.91;18.24
59272;BME280;45043;51.068;7.026;2023-04-26T16:01:18;100577.50;;;19.02;17.62
59272;BME280;45043;51.068;7.026;2023-04-26T16:04:18;100569.09;;;20.23;16.66
59272;BME280;45043;51.068;7.026;2023-04-26T16:07:20;100578.81;;;21.19;16.01
59272;BME280;45043;51.068;7.026;2023-04-26T16:10:20;100584.66;;;22.25;15.11